Time,TemperatureF,DewpointF,PressureIn,WindDirection,WindDirectionDegrees,WindSpeedMPH,WindSpeedGustMPH,Humidity,HourlyPrecipIn,Conditions,Clouds,dailyrainin,SoftwareType,DateUTC
2013-03-18 00:02:00,42.0,40.0,29.71,East,94,0.0,-999.0,91,-99.99,,,-99.99,,2013-03-18 05:02:00,
2013-03-18 00:12:00,42.0,40.0,29.71,East,94,0.0,-999.0,91,-99.99,,,-99.99,,2013-03-18 05:12:00,
2013-03-18 00:22:00,42.0,40.0,29.71,East,94,0.0,-999.0,91,-99.99,,,-99.99,,2013-03-18 05:22:00,
2013-03-18 00:32:00,42.0,40.0,29.72,East,94,0.0,-999.0,91,-99.99,,,-99.99,,2013-03-18 05:32:00,
2013-03-18 00:43:00,42.0,40.0,29.72,East,94,0.0,-999.0,91,-99.99,,,-99.99,,2013-03-18 05:43:00,
2013-03-18 00:52:00,42.0,40.0,29.72,East,94,0.0,-999.0,91,-99.99,,,-99.99,,2013-03-18 05:52:00,
2013-03-18 01:02:00,42.0,40.0,29.72,East,94,0.0,-999.0,92,-99.99,,,-99.99,,2013-03-18 06:02:00,
2013-03-18 01:12:00,42.0,40.0,29.72,East,94,0.0,-999.0,92,-99.99,,,-99.99,,2013-03-18 06:12:00,
2013-03-18 01:22:00,42.0,40.0,29.72,East,94,0.0,-999.0,92,-99.99,,,-99.99,,2013-03-18 06:22:00,
2013-03-18 01:32:00,42.0,40.0,29.71,East,94,0.0,-999.0,92,-99.99,,,-99.99,,2013-03-18 06:32:00,
2013-03-18 01:42:00,42.0,40.0,29.71,East,94,0.0,-999.0,92,-99.99,,,-99.99,,2013-03-18 06:42:00,
2013-03-18 01:52:00,42.0,40.0,29.71,East,94,0.0,-999.0,92,-99.99,,,-99.99,,2013-03-18 06:52:00,
2013-03-18 02:02:00,42.0,40.0,29.70,East,94,0.0,-999.0,92,-99.99,,,-99.99,,2013-03-18 07:02:00,
2013-03-18 02:12:00,42.0,40.0,29.70,East,94,0.0,-999.0,92,-99.99,,,-99.99,,2013-03-18 07:12:00,
2013-03-18 02:22:00,42.0,40.0,29.71,East,94,0.0,-999.0,92,-99.99,,,-99.99,,2013-03-18 07:22:00,
2013-03-18 02:32:00,42.0,40.0,29.70,East,94,0.0,-999.0,92,-99.99,,,-99.99,,2013-03-18 07:32:00,
2013-03-18 02:42:00,42.0,40.0,29.70,East,94,0.0,-999.0,92,-99.99,,,-99.99,,2013-03-18 07:42:00,
2013-03-18 02:52:00,42.0,40.0,29.71,East,94,0.0,-999.0,92,-99.99,,,-99.99,,2013-03-18 07:52:00,
2013-03-18 03:02:00,42.0,40.0,29.70,East,94,0.0,-999.0,92,-99.99,,,-99.99,,2013-03-18 08:02:00,
2013-03-18 03:12:00,42.0,40.0,29.70,East,94,0.0,-999.0,92,-99.99,,,-99.99,,2013-03-18 08:12:00,
2013-03-18 03:22:00,42.0,40.0,29.70,East,94,0.0,-999.0,92,-99.99,,,-99.99,,2013-03-18 08:22:00,
2013-03-18 03:32:00,42.0,40.0,29.69,East,94,0.0,-999.0,91,-99.99,,,-99.99,,2013-03-18 08:32:00,
2013-03-18 03:43:00,42.0,40.0,29.69,East,94,0.0,-999.0,91,-99.99,,,-99.99,,2013-03-18 08:43:00,
2013-03-18 03:52:00,42.0,40.0,29.68,East,94,0.0,-999.0,91,-99.99,,,-99.99,,2013-03-18 08:52:00,
2013-03-18 04:02:00,42.0,40.0,29.68,East,94,0.0,-999.0,91,-99.99,,,-99.99,,2013-03-18 09:02:00,
2013-03-18 04:12:00,42.0,40.0,29.68,East,94,0.0,-999.0,91,-99.99,,,-99.99,,2013-03-18 09:12:00,
2013-03-18 04:22:00,42.0,40.0,29.69,East,94,1.0,-999.0,92,-99.99,,,-99.99,,2013-03-18 09:22:00,
2013-03-18 04:33:00,42.0,40.0,29.70,SW,233,0.0,-999.0,92,-99.99,,,-99.99,,2013-03-18 09:33:00,
2013-03-18 04:43:00,42.0,40.0,29.70,SW,233,0.0,-999.0,92,-99.99,,,-99.99,,2013-03-18 09:43:00,
2013-03-18 04:53:00,42.0,40.0,29.71,SW,234,0.0,-999.0,92,-99.99,,,-99.99,,2013-03-18 09:53:00,
2013-03-18 05:03:00,42.0,40.0,29.72,WSW,250,0.0,-999.0,92,-99.99,,,-99.99,,2013-03-18 10:03:00,
2013-03-18 05:12:00,42.0,40.0,29.72,WSW,250,0.0,-999.0,92,-99.99,,,-99.99,,2013-03-18 10:12:00,
2013-03-18 05:23:00,42.0,40.0,29.72,WSW,250,0.0,-999.0,92,-99.99,,,-99.99,,2013-03-18 10:23:00,
2013-03-18 05:33:00,43.0,41.0,29.72,WSW,250,0.0,-999.0,92,-99.99,,,-99.99,,2013-03-18 10:33:00,
2013-03-18 05:42:00,43.0,41.0,29.72,WSW,250,0.0,-999.0,92,-99.99,,,-99.99,,2013-03-18 10:42:00,
2013-03-18 05:52:00,43.0,41.0,29.72,WSW,250,0.0,-999.0,92,-99.99,,,-99.99,,2013-03-18 10:52:00,
2013-03-18 06:03:00,42.0,40.0,29.70,WSW,250,0.0,-999.0,92,-99.99,,,-99.99,,2013-03-18 11:03:00,
2013-03-18 06:12:00,42.0,40.0,29.70,WSW,250,0.0,-999.0,92,-99.99,,,-99.99,,2013-03-18 11:12:00,
2013-03-18 06:22:00,42.0,40.0,29.69,WSW,250,0.0,-999.0,92,-99.99,,,-99.99,,2013-03-18 11:22:00,
2013-03-18 06:32:00,42.0,40.0,29.69,WSW,250,0.0,-999.0,92,-99.99,,,-99.99,,2013-03-18 11:32:00,
2013-03-18 06:42:00,42.0,40.0,29.69,WSW,250,0.0,-999.0,92,-99.99,,,-99.99,,2013-03-18 11:42:00,
2013-03-18 06:52:00,42.0,40.0,29.71,WSW,250,0.0,-999.0,92,-99.99,,,-99.99,,2013-03-18 11:52:00,
2013-03-18 07:02:00,41.0,39.0,29.72,WSW,250,0.0,-999.0,92,-99.99,,,-99.99,,2013-03-18 12:02:00,
2013-03-18 07:12:00,41.0,39.0,29.72,WSW,250,0.0,-999.0,92,-99.99,,,-99.99,,2013-03-18 12:12:00,
2013-03-18 07:22:00,41.0,39.0,29.72,WSW,250,0.0,-999.0,92,-99.99,,,-99.99,,2013-03-18 12:22:00,
2013-03-18 07:32:00,40.0,38.0,29.73,WSW,250,0.0,-999.0,93,-99.99,,,-99.99,,2013-03-18 12:32:00,
2013-03-18 07:42:00,40.0,38.0,29.73,WSW,250,0.0,-999.0,93,-99.99,,,-99.99,,2013-03-18 12:42:00,
2013-03-18 07:52:00,41.0,39.0,29.75,WSW,250,0.0,-999.0,94,-99.99,,,-99.99,,2013-03-18 12:52:00,
2013-03-18 08:02:00,41.0,39.0,29.75,WSW,250,0.0,-999.0,94,-99.99,,,-99.99,,2013-03-18 13:02:00,
2013-03-18 08:12:00,41.0,39.0,29.75,WSW,250,0.0,-999.0,94,-99.99,,,-99.99,,2013-03-18 13:12:00,
2013-03-18 08:22:00,43.0,41.0,29.75,WSW,250,0.0,-999.0,94,-99.99,,,-99.99,,2013-03-18 13:22:00,
2013-03-18 08:33:00,43.0,41.0,29.76,WSW,250,1.0,-999.0,94,-99.99,,,-99.99,,2013-03-18 13:33:00,
2013-03-18 08:42:00,43.0,41.0,29.76,WSW,250,1.0,-999.0,94,-99.99,,,-99.99,,2013-03-18 13:42:00,
2013-03-18 08:52:00,44.0,42.0,29.76,WSW,250,0.0,-999.0,93,-99.99,,,-99.99,,2013-03-18 13:52:00,
2013-03-18 09:02:00,45.0,43.0,29.77,West,270,1.0,-999.0,92,-99.99,,,-99.99,,2013-03-18 14:02:00,
2013-03-18 09:12:00,45.0,43.0,29.77,West,270,1.0,-999.0,92,-99.99,,,-99.99,,2013-03-18 14:12:00,
2013-03-18 09:22:00,45.0,43.0,29.77,West,270,1.0,-999.0,92,-99.99,,,-99.99,,2013-03-18 14:22:00,
2013-03-18 09:32:00,46.0,43.0,29.82,WNW,287,5.0,-999.0,89,-99.99,,,-99.99,,2013-03-18 14:32:00,
2013-03-18 09:42:00,46.0,43.0,29.82,WNW,287,5.0,-999.0,89,-99.99,,,-99.99,,2013-03-18 14:42:00,
2013-03-18 09:52:00,46.0,43.0,29.81,WNW,286,3.0,-999.0,89,-99.99,,,-99.99,,2013-03-18 14:52:00,
2013-03-18 10:02:00,46.0,43.0,29.81,WSW,254,3.0,-999.0,88,-99.99,,,-99.99,,2013-03-18 15:02:00,
2013-03-18 10:12:00,46.0,43.0,29.81,WSW,254,3.0,-999.0,88,-99.99,,,-99.99,,2013-03-18 15:12:00,
2013-03-18 10:22:00,47.0,43.0,29.81,West,263,3.0,-999.0,87,-99.99,,,-99.99,,2013-03-18 15:22:00,
2013-03-18 10:33:00,47.0,43.0,29.80,West,272,3.0,-999.0,86,-99.99,,,-99.99,,2013-03-18 15:33:00,
2013-03-18 10:43:00,47.0,43.0,29.80,West,272,3.0,-999.0,86,-99.99,,,-99.99,,2013-03-18 15:43:00,
2013-03-18 10:52:00,47.0,43.0,29.79,WSW,252,3.0,-999.0,85,-99.99,,,-99.99,,2013-03-18 15:52:00,
2013-03-18 11:03:00,47.0,43.0,29.78,WSW,250,1.0,-999.0,85,-99.99,,,-99.99,,2013-03-18 16:03:00,
2013-03-18 11:12:00,47.0,43.0,29.78,WSW,250,1.0,-999.0,85,-99.99,,,-99.99,,2013-03-18 16:12:00,
2013-03-18 11:22:00,48.0,43.0,29.79,WNW,283,1.0,-999.0,84,-99.99,,,-99.99,,2013-03-18 16:22:00,
2013-03-18 11:32:00,48.0,43.0,29.81,WSW,258,3.0,-999.0,83,-99.99,,,-99.99,,2013-03-18 16:32:00,
2013-03-18 11:42:00,48.0,43.0,29.81,WSW,258,3.0,-999.0,83,-99.99,,,-99.99,,2013-03-18 16:42:00,
2013-03-18 11:52:00,48.0,43.0,29.81,WSW,256,2.0,-999.0,82,-99.99,,,-99.99,,2013-03-18 16:52:00,
2013-03-18 12:02:00,48.0,42.0,29.81,WSW,258,5.0,-999.0,81,-99.99,,,-99.99,,2013-03-18 17:02:00,
2013-03-18 12:12:00,48.0,42.0,29.81,WSW,258,5.0,-999.0,81,-99.99,,,-99.99,,2013-03-18 17:12:00,
2013-03-18 12:22:00,48.0,43.0,29.82,WSW,250,6.0,-999.0,82,-99.99,,,-99.99,,2013-03-18 17:22:00,
2013-03-18 12:32:00,48.0,42.0,29.82,WNW,284,5.0,-999.0,81,-99.99,,,-99.99,,2013-03-18 17:32:00,
2013-03-18 12:42:00,48.0,42.0,29.82,WNW,284,5.0,-999.0,81,-99.99,,,-99.99,,2013-03-18 17:42:00,
2013-03-18 12:52:00,48.0,42.0,29.83,West,277,6.0,-999.0,79,-99.99,,,-99.99,,2013-03-18 17:52:00,
2013-03-18 13:02:00,48.0,41.0,29.84,WSW,250,7.0,-999.0,78,-99.99,,,-99.99,,2013-03-18 18:02:00,
2013-03-18 13:12:00,48.0,41.0,29.84,WSW,250,7.0,-999.0,78,-99.99,,,-99.99,,2013-03-18 18:12:00,
2013-03-18 13:22:00,48.0,41.0,29.85,WSW,251,7.0,-999.0,78,-99.99,,,-99.99,,2013-03-18 18:22:00,
2013-03-18 13:32:00,48.0,41.0,29.86,WNW,288,5.0,-999.0,77,-99.99,,,-99.99,,2013-03-18 18:32:00,
2013-03-18 13:42:00,48.0,41.0,29.86,WNW,288,5.0,-999.0,77,-99.99,,,-99.99,,2013-03-18 18:42:00,
2013-03-18 13:52:00,48.0,41.0,29.87,SW,229,5.0,-999.0,76,-99.99,,,-99.99,,2013-03-18 18:52:00,
2013-03-18 14:02:00,49.0,41.0,29.88,NW,305,6.0,-999.0,73,-99.99,,,-99.99,,2013-03-18 19:02:00,
2013-03-18 14:12:00,49.0,41.0,29.88,NW,305,6.0,-999.0,73,-99.99,,,-99.99,,2013-03-18 19:12:00,
2013-03-18 14:22:00,49.0,41.0,29.87,WNW,296,5.0,-999.0,74,-99.99,,,-99.99,,2013-03-18 19:22:00,
2013-03-18 14:33:00,48.0,40.0,29.87,WSW,257,7.0,-999.0,73,-99.99,,,-99.99,,2013-03-18 19:33:00,
2013-03-18 14:42:00,48.0,40.0,29.87,WSW,257,7.0,-999.0,73,-99.99,,,-99.99,,2013-03-18 19:42:00,
2013-03-18 14:52:00,48.0,39.0,29.87,WNW,296,6.0,-999.0,72,-99.99,,,-99.99,,2013-03-18 19:52:00,
2013-03-18 15:02:00,49.0,40.0,29.87,WNW,289,8.0,-999.0,70,-99.99,,,-99.99,,2013-03-18 20:02:00,
2013-03-18 15:12:00,49.0,40.0,29.87,WNW,289,8.0,-999.0,70,-99.99,,,-99.99,,2013-03-18 20:12:00,
2013-03-18 15:22:00,49.0,40.0,29.88,West,270,5.0,-999.0,70,-99.99,,,-99.99,,2013-03-18 20:22:00,
2013-03-18 15:33:00,50.0,40.0,29.88,North,360,6.0,-999.0,69,-99.99,,,-99.99,,2013-03-18 20:33:00,
2013-03-18 15:42:00,50.0,40.0,29.88,North,360,6.0,-999.0,69,-99.99,,,-99.99,,2013-03-18 20:42:00,
2013-03-18 15:52:00,51.0,40.0,29.88,WNW,285,6.0,-999.0,67,-99.99,,,-99.99,,2013-03-18 20:52:00,
2013-03-18 16:02:00,50.0,40.0,29.88,West,273,4.0,-999.0,69,-99.99,,,-99.99,,2013-03-18 21:02:00,
2013-03-18 16:12:00,50.0,40.0,29.88,West,273,4.0,-999.0,69,-99.99,,,-99.99,,2013-03-18 21:12:00,
2013-03-18 16:22:00,51.0,39.0,29.88,WNW,289,7.0,-999.0,64,-99.99,,,-99.99,,2013-03-18 21:22:00,
2013-03-18 16:32:00,52.0,40.0,29.88,SW,236,7.0,-999.0,64,-99.99,,,-99.99,,2013-03-18 21:32:00,
2013-03-18 16:42:00,52.0,40.0,29.88,SW,236,7.0,-999.0,64,-99.99,,,-99.99,,2013-03-18 21:42:00,
2013-03-18 16:52:00,52.0,39.0,29.87,West,277,6.0,-999.0,61,-99.99,,,-99.99,,2013-03-18 21:52:00,
2013-03-18 17:03:00,53.0,39.0,29.88,West,277,6.0,-999.0,60,-99.99,,,-99.99,,2013-03-18 22:03:00,
2013-03-18 17:13:00,53.0,39.0,29.88,West,277,6.0,-999.0,60,-99.99,,,-99.99,,2013-03-18 22:13:00,
2013-03-18 17:23:00,53.0,38.0,29.89,NW,310,5.0,-999.0,56,-99.99,,,-99.99,,2013-03-18 22:23:00,
2013-03-18 17:33:00,53.0,37.0,29.89,WNW,296,5.0,-999.0,54,-99.99,,,-99.99,,2013-03-18 22:33:00,
2013-03-18 17:42:00,53.0,37.0,29.89,WNW,296,5.0,-999.0,54,-99.99,,,-99.99,,2013-03-18 22:42:00,
2013-03-18 17:52:00,53.0,37.0,29.89,WNW,296,5.0,-999.0,54,-99.99,,,-99.99,,2013-03-18 22:52:00,
2013-03-18 18:03:00,54.0,37.0,29.88,West,275,3.0,-999.0,52,-99.99,,,-99.99,,2013-03-18 23:03:00,
2013-03-18 18:12:00,54.0,37.0,29.88,West,275,3.0,-999.0,52,-99.99,,,-99.99,,2013-03-18 23:12:00,
2013-03-18 18:22:00,54.0,36.0,29.89,WNW,294,3.0,-999.0,50,-99.99,,,-99.99,,2013-03-18 23:22:00,
2013-03-18 18:32:00,54.0,36.0,29.89,West,279,2.0,-999.0,51,-99.99,,,-99.99,,2013-03-18 23:32:00,
2013-03-18 18:42:00,54.0,36.0,29.89,West,279,2.0,-999.0,51,-99.99,,,-99.99,,2013-03-18 23:42:00,
2013-03-18 18:52:00,54.0,35.0,29.90,NNW,327,5.0,-999.0,49,-99.99,,,-99.99,,2013-03-18 23:52:00,
2013-03-18 19:02:00,54.0,35.0,29.89,West,273,3.0,-999.0,49,-99.99,,,-99.99,,2013-03-19 00:02:00,
2013-03-18 19:12:00,54.0,35.0,29.89,West,273,3.0,-999.0,49,-99.99,,,-99.99,,2013-03-19 00:12:00,
2013-03-18 19:22:00,53.0,34.0,29.91,WNW,285,2.0,-999.0,49,-99.99,,,-99.99,,2013-03-19 00:22:00,
2013-03-18 19:32:00,52.0,35.0,29.92,West,266,1.0,-999.0,52,-99.99,,,-99.99,,2013-03-19 00:32:00,
2013-03-18 19:42:00,52.0,35.0,29.92,West,266,1.0,-999.0,52,-99.99,,,-99.99,,2013-03-19 00:42:00,
2013-03-18 19:52:00,51.0,36.0,29.92,West,266,0.0,-999.0,56,-99.99,,,-99.99,,2013-03-19 00:52:00,
2013-03-18 20:02:00,48.0,37.0,29.93,West,266,0.0,-999.0,65,-99.99,,,-99.99,,2013-03-19 01:02:00,
2013-03-18 20:12:00,48.0,37.0,29.93,West,266,0.0,-999.0,65,-99.99,,,-99.99,,2013-03-19 01:12:00,
2013-03-18 20:22:00,46.0,37.0,29.94,West,266,0.0,-999.0,70,-99.99,,,-99.99,,2013-03-19 01:22:00,
2013-03-18 20:32:00,46.0,37.0,29.94,West,266,0.0,-999.0,70,-99.99,,,-99.99,,2013-03-19 01:32:00,
2013-03-18 20:42:00,46.0,37.0,29.94,West,266,0.0,-999.0,70,-99.99,,,-99.99,,2013-03-19 01:42:00,
2013-03-18 20:52:00,43.0,35.0,29.95,West,266,0.0,-999.0,74,-99.99,,,-99.99,,2013-03-19 01:52:00,
2013-03-18 21:02:00,41.0,34.0,29.95,West,266,0.0,-999.0,77,-99.99,,,-99.99,,2013-03-19 02:02:00,
2013-03-18 21:12:00,41.0,34.0,29.95,West,266,0.0,-999.0,77,-99.99,,,-99.99,,2013-03-19 02:12:00,
2013-03-18 21:22:00,40.0,34.0,29.96,West,266,0.0,-999.0,79,-99.99,,,-99.99,,2013-03-19 02:22:00,
2013-03-18 21:32:00,39.0,34.0,29.96,West,266,0.0,-999.0,81,-99.99,,,-99.99,,2013-03-19 02:32:00,
2013-03-18 21:42:00,39.0,34.0,29.96,West,266,0.0,-999.0,81,-99.99,,,-99.99,,2013-03-19 02:42:00,
2013-03-18 21:52:00,39.0,34.0,29.97,West,266,0.0,-999.0,82,-99.99,,,-99.99,,2013-03-19 02:52:00,
2013-03-18 22:02:00,38.0,33.0,29.98,West,266,0.0,-999.0,82,-99.99,,,-99.99,,2013-03-19 03:02:00,
2013-03-18 22:12:00,38.0,33.0,29.98,West,266,0.0,-999.0,82,-99.99,,,-99.99,,2013-03-19 03:12:00,
2013-03-18 22:22:00,37.0,32.0,29.99,West,266,0.0,-999.0,83,-99.99,,,-99.99,,2013-03-19 03:22:00,
2013-03-18 22:33:00,37.0,33.0,29.99,West,266,0.0,-999.0,84,-99.99,,,-99.99,,2013-03-19 03:33:00,
2013-03-18 22:43:00,37.0,33.0,29.99,West,266,0.0,-999.0,84,-99.99,,,-99.99,,2013-03-19 03:43:00,
2013-03-18 22:53:00,36.0,32.0,30.01,West,266,0.0,-999.0,85,-99.99,,,-99.99,,2013-03-19 03:53:00,
2013-03-18 23:03:00,35.0,31.0,30.01,West,266,0.0,-999.0,86,-99.99,,,-99.99,,2013-03-19 04:03:00,
2013-03-18 23:13:00,35.0,31.0,30.01,West,266,0.0,-999.0,86,-99.99,,,-99.99,,2013-03-19 04:13:00,
2013-03-18 23:23:00,35.0,32.0,30.03,West,266,0.0,-999.0,87,-99.99,,,-99.99,,2013-03-19 04:23:00,
2013-03-18 23:33:00,34.0,31.0,30.03,West,266,0.0,-999.0,88,-99.99,,,-99.99,,2013-03-19 04:33:00,
2013-03-18 23:43:00,34.0,31.0,30.03,West,266,0.0,-999.0,88,-99.99,,,-99.99,,2013-03-19 04:43:00,
2013-03-18 23:52:00,34.0,31.0,30.03,West,266,0.0,-999.0,88,-99.99,,,-99.99,,2013-03-19 04:52:00,